Litchfield, MN

12:09 PM CST on December 17, 2017 (GMT -0600)
Litchfield Municipal

Weather History for KLJF - April, 2011

Change the Weather History Date:

Wednesday, April 13, 2011

  Actual Average Record
Temperature  
Mean Temperature 50 °F -  
Max Temperature 55 °F 54 °F 82 °F (2003)
Min Temperature 44 °F 33 °F 13 °F (1950)
Degree Days  
Heating Degree Days 16    
Moisture  
Dew Point 32 °F    
Average Humidity 53    
Maximum Humidity 87    
Minimum Humidity 25    
Precipitation  
Precipitation 0.04 in - - ()
Sea Level Pressure  
Sea Level Pressure 30.11 in    
Wind  
Wind Speed 10 mph (North)    
Max Wind Speed 20 mph    
Max Gust Speed 25 mph    
Visibility 10 miles    
Events Rain    
Averages and records for this station are not official NWS values.
T = Trace of Precipitation, MM = Missing Value Source: NWS Daily Summary

Daily Weather History Graph

Daily Weather History Graph

Search for Another Location

Airport or City:

Trip Planner

Search our weather history database for the weather conditions in past years. The results will help you decide how hot, cold, wet, or windy it might be!

Date:

Astronomy

Apr. 13, 2011 Rise Set
Actual Time 6:37 AM CDT 8:00 PM CDT
Civil Twilight 6:06 AM CDT 8:31 PM CDT
Nautical Twilight 5:29 AM CDT 9:08 PM CDT
Astronomical Twilight 4:50 AM CDT 9:47 PM CDT
Moon 2:51 PM CDT (4/13) 3:53 AM CDT (4/13)
Length of Visible Light 14h 24m
Length of Day
13h 23m
Waxing Gibbous, 74% of the Moon is Illuminated
Apr 13
Waxing Gibbous
Apr 17
Full
Apr 24
Last Quarter
May 3
New
May 10
First Quarter

Hourly Weather History & Observations

Time (CDT) Temp. Windchill Dew Point Humidity Pressure Visibility Wind Dir Wind Speed Gust Speed Precip Events Conditions
12:12 AM 55.4 °F - 41.0 °F 58% 29.94 in 10.0 mi South 3.5 mph - N/A   Scattered Clouds
12:33 AM 55.4 °F - 39.2 °F 54% 29.95 in 10.0 mi Calm Calm - N/A   Mostly Cloudy
12:53 AM 55.4 °F - 39.2 °F 54% 29.95 in 10.0 mi Calm Calm - N/A   Mostly Cloudy
1:13 AM 53.6 °F - 42.8 °F 67% 29.97 in 10.0 mi NW 5.8 mph - N/A   Mostly Cloudy
1:33 AM 53.6 °F - 42.8 °F 67% 29.97 in 10.0 mi NNW 11.5 mph - N/A   Scattered Clouds
1:53 AM 51.8 °F - 39.2 °F 62% 29.98 in 10.0 mi North 13.8 mph 19.6 mph N/A   Mostly Cloudy
2:13 AM 51.8 °F - 37.4 °F 58% 29.99 in 10.0 mi North 19.6 mph 25.3 mph N/A   Mostly Cloudy
2:33 AM 51.8 °F - 39.2 °F 62% 30.00 in 10.0 mi North 19.6 mph 24.2 mph N/A   Scattered Clouds
2:53 AM 50.0 °F - 41.0 °F 71% 30.01 in 10.0 mi North 17.3 mph 20.7 mph N/A   Clear
3:13 AM 48.2 °F - 42.8 °F 82% 30.02 in 10.0 mi North 18.4 mph 25.3 mph N/A   Scattered Clouds
3:33 AM 48.2 °F - 41.0 °F 76% 30.03 in 10.0 mi North 16.1 mph 24.2 mph N/A   Scattered Clouds
3:53 AM 48.2 °F - 39.2 °F 71% 30.03 in 10.0 mi North 16.1 mph 24.2 mph N/A   Clear
4:13 AM 46.4 °F 40.1 °F 39.2 °F 76% 30.04 in 10.0 mi North 15.0 mph - N/A Rain Light Rain
4:33 AM 46.4 °F 40.7 °F 37.4 °F 71% 30.06 in 10.0 mi North 12.7 mph 20.7 mph N/A   Light Drizzle
4:53 AM 46.4 °F 40.1 °F 37.4 °F 71% 30.06 in 10.0 mi North 15.0 mph - N/A Rain Light Rain
5:13 AM 46.4 °F 40.4 °F 39.2 °F 76% 30.07 in 10.0 mi North 13.8 mph 19.6 mph N/A Rain Rain
5:33 AM 44.6 °F 38.4 °F 39.2 °F 81% 30.08 in 10.0 mi North 12.7 mph - 0.01 in Rain Light Rain
5:55 AM 44.6 °F 40.2 °F 39.2 °F 81% 30.09 in 10.0 mi NNE 8.1 mph - 0.01 in Rain Rain
6:14 AM 44.6 °F 40.7 °F 39.2 °F 81% 30.09 in 10.0 mi North 6.9 mph - 0.02 in Rain Rain
6:33 AM 44.6 °F 40.7 °F 41.0 °F 87% 30.11 in 10.0 mi North 6.9 mph - 0.03 in   Drizzle
6:55 AM 44.6 °F 39.7 °F 39.2 °F 81% 30.12 in 10.0 mi North 9.2 mph - N/A   Light Drizzle
6:59 AM 44.6 °F 40.2 °F 39.2 °F 81% 30.12 in 10.0 mi North 8.1 mph - N/A   Light Drizzle
7:14 AM 44.6 °F 39.2 °F 39.2 °F 81% 30.13 in 10.0 mi North 10.4 mph - N/A Rain Light Rain
7:33 AM 44.6 °F 40.7 °F 37.4 °F 76% 30.14 in 10.0 mi North 6.9 mph - N/A   Overcast
7:53 AM 44.6 °F 39.7 °F 37.4 °F 76% 30.14 in 10.0 mi NNE 9.2 mph - N/A   Mostly Cloudy
8:13 AM 44.6 °F 38.8 °F 35.6 °F 71% 30.15 in 10.0 mi NNE 11.5 mph - N/A   Mostly Cloudy
8:33 AM 44.6 °F 38.1 °F 33.8 °F 66% 30.15 in 10.0 mi North 13.8 mph - N/A   Mostly Cloudy
8:53 AM 46.4 °F 40.7 °F 33.8 °F 62% 30.15 in 10.0 mi NNE 12.7 mph 18.4 mph N/A   Scattered Clouds
9:13 AM 46.4 °F 40.4 °F 33.8 °F 62% 30.16 in 10.0 mi NNE 13.8 mph 17.3 mph N/A   Scattered Clouds
9:33 AM 46.4 °F 40.7 °F 32.0 °F 57% 30.17 in 10.0 mi NNE 12.7 mph - N/A   Clear
9:53 AM 46.4 °F 41.9 °F 32.0 °F 57% 30.18 in 10.0 mi NNE 9.2 mph 16.1 mph N/A   Clear
10:13 AM 48.2 °F - 30.2 °F 50% 30.18 in 10.0 mi NNE 11.5 mph - N/A   Clear
10:33 AM 50.0 °F - 30.2 °F 47% 30.18 in 10.0 mi North 13.8 mph - N/A   Clear
10:53 AM 50.0 °F - 30.2 °F 47% 30.18 in 10.0 mi North 9.2 mph - N/A   Clear
11:13 AM 50.0 °F - 28.4 °F 43% 30.18 in 10.0 mi North 11.5 mph - N/A   Clear
11:33 AM 51.8 °F - 28.4 °F 41% 30.18 in 10.0 mi NNE 10.4 mph - N/A   Clear
11:53 AM 51.8 °F - 26.6 °F 38% 30.18 in 10.0 mi North 8.1 mph - N/A   Scattered Clouds
12:13 PM 53.6 °F - 24.8 °F 33% 30.18 in 10.0 mi North 9.2 mph - N/A   Clear
12:53 PM 55.4 °F - 24.8 °F 31% 30.17 in 10.0 mi North 16.1 mph 20.7 mph N/A   Mostly Cloudy
1:13 PM 55.4 °F - 24.8 °F 31% 30.18 in 10.0 mi North 13.8 mph - N/A   Scattered Clouds
1:33 PM 55.4 °F - 19.4 °F 25% 30.18 in 10.0 mi NNW 13.8 mph 21.9 mph N/A   Clear
1:53 PM 55.4 °F - 21.2 °F 26% 30.17 in 10.0 mi NNW 13.8 mph 17.3 mph N/A   Clear
2:13 PM 55.4 °F - 23.0 °F 29% 30.17 in 10.0 mi North 11.5 mph - N/A   Scattered Clouds
2:33 PM 55.4 °F - 21.2 °F 26% 30.16 in 10.0 mi North 6.9 mph - N/A   Clear
2:53 PM 55.4 °F - 23.0 °F 29% 30.16 in 10.0 mi NNW 12.7 mph 17.3 mph N/A   Clear
3:13 PM 55.4 °F - 21.2 °F 26% 30.15 in 10.0 mi NNW 9.2 mph 16.1 mph N/A   Clear
3:33 PM 55.4 °F - 21.2 °F 26% 30.15 in 10.0 mi North 10.4 mph 16.1 mph N/A   Clear
3:53 PM 55.4 °F - 21.2 °F 26% 30.15 in 10.0 mi North 11.5 mph 17.3 mph N/A   Clear
4:12 PM 55.4 °F - 21.2 °F 26% 30.15 in 10.0 mi North 9.2 mph - N/A   Clear
4:33 PM 55.4 °F - 24.8 °F 31% 30.15 in 10.0 mi North 10.4 mph - N/A   Clear
4:53 PM 55.4 °F - 24.8 °F 31% 30.15 in 10.0 mi NNW 13.8 mph - N/A   Clear
5:13 PM 53.6 °F - 24.8 °F 33% 30.15 in 10.0 mi NNW 10.4 mph - N/A   Clear
5:33 PM 53.6 °F - 24.8 °F 33% 30.15 in 10.0 mi NNW 10.4 mph - N/A   Clear
5:53 PM 53.6 °F - 23.0 °F 30% 30.15 in 10.0 mi North 9.2 mph - N/A   Clear
6:13 PM 53.6 °F - 23.0 °F 30% 30.14 in 10.0 mi North 11.5 mph - N/A   Clear
6:33 PM 53.6 °F - 23.0 °F 30% 30.14 in 10.0 mi North 9.2 mph 16.1 mph N/A   Clear
6:53 PM 53.6 °F - 24.8 °F 33% 30.14 in 10.0 mi North 8.1 mph - N/A   Clear
7:13 PM 53.6 °F - 24.8 °F 33% 30.14 in 10.0 mi North 9.2 mph - N/A   Clear
7:33 PM 51.8 °F - 26.6 °F 38% 30.14 in 10.0 mi North 8.1 mph - N/A   Clear
7:53 PM 51.8 °F - 28.4 °F 41% 30.15 in 10.0 mi NNE 9.2 mph - N/A   Clear
8:13 PM 48.2 °F - 28.4 °F 46% 30.16 in 10.0 mi NNE 12.7 mph 16.1 mph N/A   Clear
8:33 PM 48.2 °F - 28.4 °F 46% 30.17 in 10.0 mi NNE 11.5 mph 17.3 mph N/A   Clear
8:53 PM 46.4 °F 42.4 °F 28.4 °F 50% 30.18 in 10.0 mi NNE 8.1 mph - N/A   Clear
9:14 PM 44.6 °F 38.4 °F 26.6 °F 49% 30.18 in 10.0 mi North 12.7 mph 18.4 mph N/A   Clear
9:33 PM 44.6 °F 37.8 °F 24.8 °F 46% 30.19 in 10.0 mi NNE 15.0 mph 20.7 mph N/A   Clear
9:53 PM 42.8 °F 35.4 °F 26.6 °F 53% 30.19 in 10.0 mi NNE 15.0 mph 18.4 mph N/A   Clear
10:13 PM 42.8 °F 35.8 °F 26.6 °F 53% 30.19 in 10.0 mi NNE 13.8 mph - N/A   Clear
10:33 PM 41.0 °F 33.1 °F 26.6 °F 57% 30.20 in 10.0 mi NNE 15.0 mph 19.6 mph N/A   Clear
10:53 PM 39.2 °F 31.6 °F 26.6 °F 61% 30.20 in 10.0 mi NNE 12.7 mph - N/A   Clear
11:13 PM 39.2 °F 32.0 °F 26.6 °F 61% 30.19 in 10.0 mi NNE 11.5 mph - N/A   Clear
11:33 PM 39.2 °F 31.2 °F 24.8 °F 56% 30.20 in 10.0 mi NNE 13.8 mph - N/A   Clear
11:53 PM 37.4 °F 28.9 °F 24.8 °F 60% 30.21 in 10.0 mi NNE 13.8 mph 20.7 mph N/A   Clear